KCRG

Jacksonville Executive At Craig Airport

Jacksonville, Florida, USA
METAR KCRG 170753Z AUTO 00000KT 7SM CLR 09/07 A3027 RMK AO2 SLP251 T00890067
Observed Flight Rules
Dec-17 @ 07:53 UTC (19 minutes ago) Visual Flight Rules
Wind Visibility Clouds
Calm 7 miles
  • Clear skies
Temperatures Readings
Current 9°C / 48°F
Dewpoint 7°C / 45°F
Humidity 87%
Altimeter 30.27" Hg
Pressure 1025.1 hPa
Elevation 13
METAR KCRG 170753Z AUTO 00000KT 7SM CLR 09/07 A3027 RMK AO2 SLP251 T00890067
Observed Flight Rules
Dec-17 @ 07:53 UTC
(19 minutes ago)
VFR
Wind Visibility
Calm 7 miles
Clouds
  • Clear skies
Temperature Dewpoint
9°C / 48°F 7°C / 45°F
Humidity Altimeter Pressure
87% 30.27" Hg 1025.1 hPa